Time;durP1;ratioP1;P1;durP2;ratioP2;P2;SDS_P1;SDS_P2;PMS_P1;PMS_P2;Temp;Humidity;BMP_temperature;BMP_pressure;BME280_temperature;BME280_humidity;BME280_pressure;Samples;Min_cycle;Max_cycle;Signal;HPM_P1;HPM_P2
2023/05/13 00:01:18;;;;;;;15.60;13.30;;;10.20;99.90;;;;;;5074915;28;20811;-72
2023/05/13 00:03:44;;;;;;;17.70;15.13;;;10.30;96.60;;;;;;5075956;28;20182;-72
2023/05/13 00:06:10;;;;;;;19.50;14.10;;;10.20;94.20;;;;;;5058716;28;20674;-69
2023/05/13 00:08:35;;;;;;;17.90;14.50;;;10.20;93.80;;;;;;5058345;28;20205;-69
2023/05/13 00:11:01;;;;;;;17.13;13.57;;;10.20;92.20;;;;;;5074909;28;20170;-71
2023/05/13 00:13:27;;;;;;;17.83;14.47;;;10.20;92.10;;;;;;5075559;28;20678;-73
2023/05/13 00:15:53;;;;;;;17.93;15.17;;;10.00;92.00;;;;;;5078172;28;20663;-72
2023/05/13 00:18:18;;;;;;;16.10;14.40;;;9.90;92.40;;;;;;5095904;28;20169;-73
2023/05/13 00:20:44;;;;;;;20.20;15.97;;;9.90;93.70;;;;;;5062958;28;20178;-70
2023/05/13 00:23:10;;;;;;;16.70;14.93;;;9.80;99.90;;;;;;5037909;28;20194;-73
2023/05/13 00:25:36;;;;;;;18.47;15.20;;;9.80;99.90;;;;;;5084756;28;20323;-73
2023/05/13 00:28:02;;;;;;;20.30;16.30;;;9.90;99.90;;;;;;5082526;28;20189;-71
2023/05/13 00:30:28;;;;;;;24.53;15.23;;;9.90;99.90;;;;;;5074305;28;20411;-70
2023/05/13 00:32:54;;;;;;;17.73;15.67;;;9.80;99.90;;;;;;5057561;28;20567;-73
2023/05/13 00:35:19;;;;;;;20.40;16.13;;;9.90;99.90;;;;;;5068181;28;20207;-73
2023/05/13 00:37:45;;;;;;;18.03;16.13;;;9.80;99.90;;;;;;5095628;28;20162;-73
2023/05/13 00:40:19;;;;;;;19.93;16.60;;;9.70;99.90;;;;;;5092849;28;20177;-73
2023/05/13 00:42:45;;;;;;;20.67;15.80;;;9.70;99.90;;;;;;5084587;28;20684;-72
2023/05/13 00:45:10;;;;;;;21.80;16.67;;;9.80;99.90;;;;;;5075546;28;20423;-72
2023/05/13 00:47:37;;;;;;;19.50;16.83;;;9.80;99.90;;;;;;5056739;28;20465;-70
2023/05/13 00:50:03;;;;;;;19.67;16.23;;;9.80;99.90;;;;;;5074730;28;20174;-72
2023/05/13 00:52:29;;;;;;;20.77;15.50;;;9.90;99.90;;;;;;5074794;28;20380;-72
2023/05/13 00:54:54;;;;;;;17.10;14.87;;;9.90;99.90;;;;;;5074730;28;20392;-69
2023/05/13 00:57:20;;;;;;;23.87;16.37;;;10.00;99.90;;;;;;5074965;28;20245;-72
2023/05/13 00:59:46;;;;;;;18.80;16.80;;;10.00;99.90;;;;;;5095035;28;20170;-72
2023/05/13 01:02:33;;;;;;;19.70;15.77;;;10.00;99.90;;;;;;5091960;28;20253;-73
2023/05/13 01:05:20;;;;;;;16.23;14.37;;;10.10;99.90;;;;;;5095076;28;20162;-72
2023/05/13 01:07:51;;;;;;;21.60;15.30;;;10.00;99.90;;;;;;5087509;28;20391;-71
2023/05/13 01:10:22;;;;;;;17.27;14.47;;;10.00;99.90;;;;;;5073694;28;20852;-73
2023/05/13 01:12:57;;;;;;;18.33;15.10;;;10.00;99.90;;;;;;5081232;28;20770;-72
2023/05/13 01:15:27;;;;;;;16.27;13.33;;;10.00;99.90;;;;;;5091125;28;21443;-72
2023/05/13 01:18:01;;;;;;;16.70;14.90;;;10.00;99.90;;;;;;5062232;28;20518;-72
2023/05/13 01:20:29;;;;;;;17.50;15.40;;;10.00;99.90;;;;;;5094022;28;20381;-70
2023/05/13 01:22:55;;;;;;;19.77;15.50;;;10.00;99.90;;;;;;5088616;28;20834;-70
2023/05/13 01:25:22;;;;;;;18.40;14.93;;;10.00;99.90;;;;;;5074481;28;21009;-72
2023/05/13 01:27:48;;;;;;;15.67;14.07;;;9.90;99.90;;;;;;5077671;28;20410;-72
2023/05/13 01:30:15;;;;;;;20.23;15.33;;;9.90;99.90;;;;;;5089127;28;20399;-73
2023/05/13 01:32:41;;;;;;;17.57;15.60;;;9.90;99.90;;;;;;5074138;28;20474;-71
2023/05/13 01:35:09;;;;;;;18.50;14.77;;;9.90;99.90;;;;;;5074198;28;20450;-69
2023/05/13 01:37:36;;;;;;;17.83;15.67;;;9.90;99.90;;;;;;5074882;28;20400;-73
2023/05/13 01:40:04;;;;;;;18.33;15.27;;;9.80;99.90;;;;;;5076341;28;20473;-72
2023/05/13 01:42:30;;;;;;;17.77;15.50;;;9.70;99.90;;;;;;5071126;28;20502;-73
2023/05/13 01:44:56;;;;;;;20.90;16.40;;;9.50;99.90;;;;;;5074164;28;20947;-72
2023/05/13 01:47:22;;;;;;;17.03;15.23;;;9.40;99.90;;;;;;5073781;28;20162;-73
2023/05/13 01:49:48;;;;;;;19.30;16.60;;;9.40;99.90;;;;;;5091798;28;20795;-74
2023/05/13 01:52:13;;;;;;;20.90;16.17;;;9.30;99.90;;;;;;5093119;28;20914;-70
2023/05/13 01:54:39;;;;;;;21.57;17.27;;;9.30;99.90;;;;;;5092847;28;20168;-72
2023/05/13 01:57:05;;;;;;;18.93;13.77;;;9.40;99.90;;;;;;5076691;28;20177;-69
2023/05/13 01:59:30;;;;;;;20.40;16.37;;;9.40;99.90;;;;;;5055786;28;20251;-69
2023/05/13 02:01:56;;;;;;;18.87;15.37;;;9.40;99.90;;;;;;5073017;28;20184;-71
2023/05/13 02:04:22;;;;;;;18.33;14.50;;;9.40;99.90;;;;;;5073236;28;20808;-69
2023/05/13 02:06:47;;;;;;;17.70;15.10;;;9.40;99.90;;;;;;5085207;28;20201;-71
2023/05/13 02:09:13;;;;;;;15.57;13.63;;;9.40;99.90;;;;;;5074194;28;20174;-72
2023/05/13 02:11:39;;;;;;;16.67;14.70;;;9.40;99.90;;;;;;5082283;28;20178;-69
2023/05/13 02:14:05;;;;;;;18.80;16.20;;;9.40;99.90;;;;;;5075615;28;20192;-70
2023/05/13 02:16:31;;;;;;;20.20;15.20;;;9.30;99.90;;;;;;5067210;28;20471;-72
2023/05/13 02:18:56;;;;;;;19.00;15.87;;;9.20;99.90;;;;;;5073236;28;20170;-69
2023/05/13 02:21:22;;;;;;;17.97;16.07;;;9.20;99.90;;;;;;5077896;28;20648;-72
2023/05/13 02:23:48;;;;;;;18.23;14.70;;;9.30;99.90;;;;;;5093692;28;20196;-69
2023/05/13 02:26:13;;;;;;;19.93;16.70;;;9.30;99.90;;;;;;5073186;28;20260;-70
2023/05/13 02:28:39;;;;;;;20.23;16.20;;;9.30;99.90;;;;;;5073440;28;20180;-72
2023/05/13 02:31:05;;;;;;;17.63;15.87;;;9.00;99.90;;;;;;5074554;28;20260;-69
2023/05/13 02:33:31;;;;;;;21.13;14.77;;;8.90;99.90;;;;;;5093499;28;20177;-70
2023/05/13 02:35:56;;;;;;;21.23;15.00;;;9.00;99.90;;;;;;5092594;28;20380;-70
2023/05/13 02:38:22;;;;;;;16.80;15.00;;;9.00;99.90;;;;;;5054487;28;20181;-71
2023/05/13 02:40:48;;;;;;;19.87;15.07;;;9.00;99.90;;;;;;5054387;28;20178;-71
2023/05/13 02:43:13;;;;;;;19.33;15.37;;;9.10;99.90;;;;;;5073070;28;20202;-70
2023/05/13 02:45:40;;;;;;;16.60;14.90;;;9.20;99.90;;;;;;5072059;28;20205;-69
2023/05/13 02:48:06;;;;;;;16.13;14.53;;;9.20;99.90;;;;;;5089839;28;20299;-72
2023/05/13 02:50:32;;;;;;;15.13;13.60;;;9.20;99.90;;;;;;5092331;28;20490;-70
2023/05/13 02:52:57;;;;;;;18.70;16.13;;;9.20;99.90;;;;;;5076595;28;20438;-70
2023/05/13 02:55:23;;;;;;;18.93;14.47;;;9.20;99.90;;;;;;5072927;28;20179;-72
2023/05/13 02:57:49;;;;;;;16.43;14.70;;;9.30;99.90;;;;;;5073136;28;20251;-72
2023/05/13 03:00:15;;;;;;;18.87;15.10;;;9.20;99.90;;;;;;5071956;28;20370;-73
2023/05/13 03:02:41;;;;;;;19.23;15.07;;;9.20;99.90;;;;;;5084148;28;20208;-70
2023/05/13 03:05:07;;;;;;;21.83;15.90;;;9.20;99.90;;;;;;5093085;28;20398;-73
2023/05/13 03:07:33;;;;;;;17.97;16.07;;;9.20;99.90;;;;;;5075496;28;20543;-69
2023/05/13 03:09:59;;;;;;;18.10;15.20;;;9.20;99.90;;;;;;5073540;28;20375;-69
2023/05/13 03:12:24;;;;;;;16.73;14.93;;;9.20;99.90;;;;;;5062033;28;20458;-70
2023/05/13 03:14:50;;;;;;;19.77;14.90;;;9.20;99.90;;;;;;5076666;28;20177;-70
2023/05/13 03:17:16;;;;;;;19.53;15.90;;;9.20;99.90;;;;;;5072997;28;20617;-72
2023/05/13 03:19:42;;;;;;;20.20;18.10;;;9.20;99.90;;;;;;5081471;28;20626;-72
2023/05/13 03:22:08;;;;;;;19.90;15.37;;;9.20;99.90;;;;;;5085295;28;20693;-70
2023/05/13 03:24:33;;;;;;;20.97;17.40;;;9.20;99.90;;;;;;5085435;28;20181;-70
2023/05/13 03:26:59;;;;;;;16.50;14.70;;;9.20;99.90;;;;;;5072461;28;20509;-72
2023/05/13 03:29:25;;;;;;;18.03;16.20;;;9.30;99.90;;;;;;5077749;28;20174;-73
2023/05/13 03:31:52;;;;;;;17.87;15.07;;;9.30;99.90;;;;;;5075217;28;20177;-70
2023/05/13 03:34:17;;;;;;;19.17;15.03;;;9.30;99.90;;;;;;5092066;28;20242;-73
2023/05/13 03:36:43;;;;;;;25.00;15.67;;;9.30;99.90;;;;;;5076679;28;20407;-72
2023/05/13 03:39:09;;;;;;;17.03;15.03;;;9.30;99.90;;;;;;5076750;28;20185;-72
2023/05/13 03:41:35;;;;;;;20.33;15.20;;;9.30;99.90;;;;;;5075675;28;20180;-69
2023/05/13 03:44:01;;;;;;;16.40;14.50;;;9.20;99.90;;;;;;5076283;28;20455;-71
2023/05/13 03:46:26;;;;;;;17.23;15.30;;;9.30;99.90;;;;;;5096264;28;20207;-72
2023/05/13 03:48:54;;;;;;;18.27;14.53;;;9.30;99.90;;;;;;5081223;28;20934;-71
2023/05/13 03:51:20;;;;;;;17.83;14.27;;;9.30;99.90;;;;;;5075039;28;20421;-70
2023/05/13 03:53:46;;;;;;;16.97;14.93;;;9.30;99.90;;;;;;5075967;28;20419;-73
2023/05/13 03:56:13;;;;;;;17.57;14.77;;;9.30;99.90;;;;;;5078984;28;20409;-72
2023/05/13 03:58:39;;;;;;;15.90;14.20;;;9.30;99.90;;;;;;5076008;28;20209;-73
2023/05/13 04:01:06;;;;;;;18.43;14.33;;;9.30;99.90;;;;;;5077198;28;20384;-73
2023/05/13 04:03:33;;;;;;;17.53;15.30;;;9.30;99.90;;;;;;5063717;28;21030;-73
2023/05/13 04:05:59;;;;;;;16.37;14.00;;;9.30;99.90;;;;;;5076004;28;20429;-72
2023/05/13 04:08:25;;;;;;;16.80;14.43;;;9.30;99.90;;;;;;5078469;28;20421;-73
2023/05/13 04:10:51;;;;;;;17.53;15.33;;;9.30;99.90;;;;;;5095251;28;20466;-73
2023/05/13 04:13:16;;;;;;;18.07;15.10;;;9.30;99.90;;;;;;5094142;28;20469;-70
2023/05/13 04:15:45;;;;;;;19.50;14.93;;;9.30;99.90;;;;;;5075030;28;20471;-69
2023/05/13 04:18:10;;;;;;;17.10;14.67;;;9.30;99.90;;;;;;5075376;28;20207;-71
2023/05/13 04:20:39;;;;;;;17.50;15.47;;;9.30;99.90;;;;;;5074866;28;20878;-70
2023/05/13 04:23:05;;;;;;;19.40;16.70;;;9.30;99.90;;;;;;5075377;28;20206;-70
2023/05/13 04:25:31;;;;;;;20.77;15.80;;;9.40;99.90;;;;;;5095640;28;20450;-70
2023/05/13 04:27:57;;;;;;;18.10;14.97;;;9.40;99.90;;;;;;5094436;28;20426;-72
2023/05/13 04:30:22;;;;;;;22.80;15.17;;;9.50;99.90;;;;;;5073981;28;20183;-73
2023/05/13 04:32:48;;;;;;;21.63;15.90;;;9.50;99.90;;;;;;5057463;28;20205;-69
2023/05/13 04:35:14;;;;;;;19.87;17.07;;;9.60;99.90;;;;;;5074660;28;20729;-73
2023/05/13 04:37:39;;;;;;;19.37;16.30;;;9.70;99.90;;;;;;5075190;28;20250;-70
2023/05/13 04:40:07;;;;;;;21.70;16.83;;;9.60;99.90;;;;;;5074756;28;20229;-74
2023/05/13 04:42:32;;;;;;;21.43;16.00;;;9.60;99.90;;;;;;5074916;28;20662;-70
2023/05/13 04:44:58;;;;;;;19.30;16.30;;;9.60;99.90;;;;;;5074000;28;20535;-72
2023/05/13 04:47:24;;;;;;;19.50;16.40;;;9.60;99.90;;;;;;5057474;28;20201;-73
2023/05/13 04:49:49;;;;;;;23.43;17.10;;;9.60;99.90;;;;;;5075116;28;20289;-74
2023/05/13 04:52:15;;;;;;;22.70;17.13;;;9.70;99.90;;;;;;5074374;28;20190;-73
2023/05/13 04:54:41;;;;;;;23.13;16.87;;;9.80;99.90;;;;;;5074992;28;20174;-72
2023/05/13 04:57:07;;;;;;;18.47;15.57;;;9.90;99.90;;;;;;5075169;28;20217;-72
2023/05/13 04:59:33;;;;;;;22.17;16.33;;;10.00;99.90;;;;;;5080180;28;20181;-69
2023/05/13 05:02:02;;;;;;;19.80;15.17;;;10.00;99.90;;;;;;5074061;28;20454;-70
2023/05/13 05:05:10;;;;;;;18.87;16.50;;;10.10;99.90;;;;;;5074843;28;20452;-69
2023/05/13 05:07:39;;;;;;;17.57;15.20;;;10.20;99.90;;;;;;5072620;28;20403;-73
2023/05/13 05:10:07;;;;;;;21.40;16.13;;;10.20;99.90;;;;;;5090971;28;20443;-75
2023/05/13 05:12:32;;;;;;;17.27;15.30;;;10.20;99.90;;;;;;5083072;28;20425;-69
2023/05/13 05:14:58;;;;;;;21.90;15.43;;;10.30;99.90;;;;;;5074782;28;20732;-72
2023/05/13 05:17:26;;;;;;;18.13;14.77;;;10.30;99.90;;;;;;5074742;28;20170;-69
2023/05/13 05:19:52;;;;;;;19.47;16.30;;;10.30;99.90;;;;;;5073366;28;20507;-73
2023/05/13 05:22:18;;;;;;;16.67;14.87;;;10.50;99.90;;;;;;5073749;28;20797;-73
2023/05/13 05:24:43;;;;;;;18.00;15.47;;;10.60;99.90;;;;;;5074645;28;20547;-70
2023/05/13 05:27:09;;;;;;;19.80;15.80;;;10.60;99.90;;;;;;5074392;28;20226;-70
2023/05/13 05:29:35;;;;;;;18.30;13.83;;;10.60;99.90;;;;;;5084116;28;20199;-72
2023/05/13 05:32:00;;;;;;;14.60;13.10;;;10.70;99.90;;;;;;5075901;28;20589;-73
2023/05/13 05:34:26;;;;;;;15.63;14.00;;;10.80;99.90;;;;;;5080913;28;20178;-70
2023/05/13 05:36:53;;;;;;;15.43;13.60;;;10.90;99.90;;;;;;5074423;28;20517;-70
2023/05/13 05:39:19;;;;;;;14.97;13.40;;;10.90;99.90;;;;;;5073270;28;20243;-71
2023/05/13 05:41:46;;;;;;;16.83;13.17;;;11.00;99.90;;;;;;5055749;28;20379;-69
2023/05/13 05:44:12;;;;;;;15.80;14.20;;;11.00;99.90;;;;;;5056346;28;20289;-71
2023/05/13 05:46:38;;;;;;;15.80;12.57;;;11.10;99.90;;;;;;5074127;28;20444;-69
2023/05/13 05:49:04;;;;;;;18.10;14.13;;;11.20;99.90;;;;;;5074022;28;20386;-72
2023/05/13 05:51:30;;;;;;;15.70;12.87;;;11.10;99.90;;;;;;5055180;28;20519;-70
2023/05/13 05:53:55;;;;;;;13.60;12.30;;;11.20;99.90;;;;;;5072542;28;20194;-70
2023/05/13 05:56:21;;;;;;;15.67;12.80;;;11.30;99.90;;;;;;5073436;28;20177;-73
2023/05/13 05:58:47;;;;;;;16.57;12.60;;;11.30;99.90;;;;;;5073729;28;20614;-71
2023/05/13 06:01:12;;;;;;;14.73;13.10;;;11.40;99.90;;;;;;5055446;28;20531;-72
2023/05/13 06:03:38;;;;;;;25.50;14.67;;;11.50;99.90;;;;;;5073651;28;20190;-70
2023/05/13 06:06:04;;;;;;;13.57;11.80;;;11.50;99.90;;;;;;5073457;28;20264;-70
2023/05/13 06:08:30;;;;;;;17.90;13.50;;;11.60;99.90;;;;;;5072673;28;20170;-68
2023/05/13 06:10:59;;;;;;;18.40;13.87;;;11.70;99.90;;;;;;5072645;28;20897;-69
2023/05/13 06:13:25;;;;;;;13.57;12.20;;;11.80;99.90;;;;;;5072468;28;20226;-70
2023/05/13 06:15:50;;;;;;;14.67;12.60;;;11.90;99.90;;;;;;5078816;28;20455;-67
2023/05/13 06:18:16;;;;;;;13.50;10.60;;;12.00;99.90;;;;;;5079097;28;20410;-69
2023/05/13 06:20:42;;;;;;;15.73;11.67;;;12.20;99.90;;;;;;5073319;28;20244;-69
2023/05/13 06:23:09;;;;;;;20.07;12.33;;;12.30;99.90;;;;;;5088496;28;20448;-67
2023/05/13 06:25:35;;;;;;;13.27;11.93;;;12.20;99.90;;;;;;5073278;28;20205;-67
2023/05/13 06:28:01;;;;;;;16.93;10.87;;;12.30;99.90;;;;;;5072081;28;20830;-69
2023/05/13 06:30:26;;;;;;;13.30;11.90;;;12.50;99.90;;;;;;5054115;28;20170;-68
2023/05/13 06:32:53;;;;;;;14.13;11.90;;;12.50;99.90;;;;;;5073095;28;20182;-69
2023/05/13 06:35:20;;;;;;;16.00;12.30;;;12.50;99.90;;;;;;5073464;28;20675;-67
2023/05/13 06:37:45;;;;;;;12.97;11.60;;;12.60;99.90;;;;;;5072529;28;20406;-67
2023/05/13 06:40:11;;;;;;;14.53;12.67;;;12.70;99.90;;;;;;5054420;28;20884;-68
2023/05/13 06:42:39;;;;;;;13.70;11.80;;;12.80;99.90;;;;;;5073139;28;20186;-66
2023/05/13 06:45:07;;;;;;;12.70;11.50;;;12.80;99.90;;;;;;5073060;28;20402;-68
2023/05/13 06:47:33;;;;;;;14.63;11.43;;;13.00;99.90;;;;;;5072903;28;20389;-68
2023/05/13 06:50:01;;;;;;;19.87;11.20;;;13.10;99.90;;;;;;5072654;28;20491;-67
2023/05/13 06:52:26;;;;;;;12.63;10.10;;;13.20;99.90;;;;;;5070566;28;20447;-69
2023/05/13 06:54:52;;;;;;;13.50;11.07;;;13.30;99.90;;;;;;5072974;28;20424;-69
2023/05/13 06:57:23;;;;;;;17.30;10.47;;;13.40;99.90;;;;;;5071189;28;20528;-71
2023/05/13 06:59:49;;;;;;;10.80;9.80;;;13.60;99.90;;;;;;5071935;28;20417;-70
2023/05/13 07:02:15;;;;;;;10.50;9.30;;;13.70;99.90;;;;;;5070897;28;20413;-68
2023/05/13 07:04:51;;;;;;;;;;;;;;;;;;;;;
2023/05/13 07:07:17;;;;;;;11.63;10.17;;;13.80;99.90;;;;;;5003607;28;20460;-70
2023/05/13 07:10:10;;;;;;;13.17;10.37;;;13.90;99.90;;;;;;5073016;28;20407;-69
2023/05/13 07:12:37;;;;;;;9.80;8.73;;;14.00;99.90;;;;;;5072308;28;20416;-70
2023/05/13 07:15:03;;;;;;;10.10;9.10;;;14.10;99.90;;;;;;5072145;28;20391;-68
2023/05/13 07:17:30;;;;;;;13.47;9.37;;;14.20;99.90;;;;;;5072471;28;20408;-68
2023/05/13 07:19:56;;;;;;;12.10;9.60;;;14.30;99.90;;;;;;5072129;28;20404;-68
2023/05/13 07:22:21;;;;;;;12.67;9.57;;;14.40;95.10;;;;;;5071066;28;20855;-69
2023/05/13 07:24:50;;;;;;;9.70;8.77;;;14.50;93.70;;;;;;5072198;28;20408;-71
2023/05/13 07:27:16;;;;;;;8.63;7.83;;;14.60;93.80;;;;;;5072571;28;20255;-72
2023/05/13 07:29:41;;;;;;;12.73;10.97;;;14.70;93.80;;;;;;5054975;28;20448;-72
2023/05/13 07:32:10;;;;;;;11.77;9.60;;;14.80;93.80;;;;;;5071546;28;20859;-70
2023/05/13 07:34:36;;;;;;;24.03;10.03;;;14.90;90.10;;;;;;5072637;28;20401;-72
2023/05/13 07:37:10;;;;;;;9.80;8.90;;;14.90;70.90;;;;;;5054172;28;20816;-70
2023/05/13 07:39:36;;;;;;;14.60;8.93;;;15.00;72.20;;;;;;5072481;28;20455;-70
2023/05/13 07:42:02;;;;;;;10.27;8.73;;;15.10;58.60;;;;;;5071292;28;20416;-72
2023/05/13 07:44:39;;;;;;;9.47;8.57;;;15.20;42.60;;;;;;5072481;28;20766;-72
2023/05/13 07:47:12;;;;;;;9.70;8.90;;;15.40;52.70;;;;;;5072222;28;20452;-72
2023/05/13 07:49:38;;;;;;;9.47;8.47;;;15.50;14.80;;;;;;5072447;28;20913;-72
2023/05/13 07:52:05;;;;;;;10.10;8.00;;;15.50;1.00;;;;;;5070614;28;20511;-72
2023/05/13 07:54:34;;;;;;;10.13;9.23;;;15.60;1.00;;;;;;5072666;28;20458;-72
2023/05/13 07:57:00;;;;;;;9.90;7.40;;;15.60;1.00;;;;;;5072248;28;20432;-73
2023/05/13 07:59:26;;;;;;;13.50;8.87;;;15.80;1.00;;;;;;5072300;28;20404;-71
2023/05/13 08:01:51;;;;;;;9.30;8.40;;;15.90;1.00;;;;;;5071310;28;20415;-70
2023/05/13 08:04:17;;;;;;;9.90;8.80;;;16.10;1.00;;;;;;5071660;28;20202;-70
2023/05/13 08:06:43;;;;;;;9.73;8.73;;;16.20;1.00;;;;;;5072361;28;20198;-72
2023/05/13 08:09:11;;;;;;;8.10;7.30;;;16.30;1.00;;;;;;5072690;28;20750;-72
2023/05/13 08:11:37;;;;;;;11.17;9.20;;;16.40;1.00;;;;;;5071414;28;20400;-72
2023/05/13 08:14:04;;;;;;;9.23;7.93;;;16.50;1.00;;;;;;5072170;28;20777;-71
2023/05/13 08:16:30;;;;;;;7.40;6.80;;;16.50;1.00;;;;;;5072076;28;20401;-72
2023/05/13 08:18:58;;;;;;;10.87;7.20;;;16.50;1.00;;;;;;5073754;28;20432;-72
2023/05/13 08:21:26;;;;;;;8.33;7.33;;;16.60;1.00;;;;;;5074664;28;20597;-71
2023/05/13 08:23:52;;;;;;;8.30;7.50;;;16.60;1.00;;;;;;5058081;28;20428;-70
2023/05/13 08:26:18;;;;;;;9.80;8.87;;;16.70;1.00;;;;;;5075608;28;20458;-72
2023/05/13 08:29:04;;;;;;;11.00;8.07;;;16.80;1.00;;;;;;5075733;28;20249;-73
2023/05/13 08:31:31;;;;;;;19.53;8.77;;;17.00;1.00;;;;;;5073721;28;20841;-73
2023/05/13 08:33:57;;;;;;;15.27;8.17;;;17.10;1.00;;;;;;5075068;28;20451;-72
2023/05/13 08:36:24;;;;;;;7.90;6.57;;;17.20;1.00;;;;;;5057616;28;20416;-72
2023/05/13 08:38:51;;;;;;;8.40;7.00;;;17.20;1.00;;;;;;5075552;28;20483;-71
2023/05/13 08:41:17;;;;;;;8.67;7.17;;;17.40;1.00;;;;;;5074496;28;20438;-72
2023/05/13 08:43:45;;;;;;;11.27;8.00;;;17.50;1.00;;;;;;5057311;28;20864;-70
2023/05/13 08:46:11;;;;;;;11.50;7.20;;;17.50;1.00;;;;;;5074421;28;20451;-75
2023/05/13 08:48:40;;;;;;;8.07;7.30;;;17.60;1.00;;;;;;5075542;28;20411;-70
2023/05/13 08:51:09;;;;;;;12.30;7.50;;;17.80;1.00;;;;;;5074364;28;20466;-71
2023/05/13 08:53:37;;;;;;;8.83;8.00;;;18.00;1.00;;;;;;5075117;28;20435;-72
2023/05/13 08:56:05;;;;;;;9.30;7.73;;;18.30;1.00;;;;;;5074794;28;20396;-72
2023/05/13 08:58:32;;;;;;;9.37;8.07;;;18.40;1.00;;;;;;5058481;28;20416;-72
2023/05/13 09:24:59;;;;;;;9.03;8.17;;;19.40;1.00;;;;;;5110391;27;20539;-66
2023/05/13 09:27:58;;;;;;;9.77;8.43;;;19.40;1.00;;;;;;5109892;28;20403;-68
2023/05/13 09:30:28;;;;;;;10.00;9.00;;;19.50;1.00;;;;;;5086497;28;20288;-69
2023/05/13 09:33:14;;;;;;;9.23;8.13;;;19.60;1.00;;;;;;5099528;28;20444;-69
2023/05/13 09:35:48;;;;;;;12.23;8.07;;;19.60;1.00;;;;;;5090199;28;20427;-71
2023/05/13 09:38:26;;;;;;;11.80;8.47;;;19.90;1.00;;;;;;5110448;28;20480;-69
2023/05/13 09:40:58;;;;;;;13.93;8.37;;;20.00;1.00;;;;;;5108135;28;20461;-71
2023/05/13 09:43:30;;;;;;;8.13;7.40;;;20.40;1.00;;;;;;5090177;28;20468;-71
2023/05/13 09:46:00;;;;;;;14.30;7.43;;;20.80;1.00;;;;;;5090801;28;20424;-71
2023/05/13 09:48:28;;;;;;;8.90;8.00;;;21.00;1.00;;;;;;5089946;28;20420;-69
2023/05/13 09:50:56;;;;;;;8.77;7.87;;;21.40;1.00;;;;;;5087268;28;20434;-68
2023/05/13 09:53:23;;;;;;;8.90;8.00;;;21.80;1.00;;;;;;5090003;28;20426;-70
2023/05/13 09:55:51;;;;;;;8.63;7.00;;;22.10;1.00;;;;;;5100981;28;20407;-69
2023/05/13 09:58:21;;;;;;;7.93;7.10;;;22.30;1.00;;;;;;5109053;28;20938;-69
2023/05/13 10:00:47;;;;;;;7.80;6.97;;;22.10;1.00;;;;;;5097843;28;20415;-70
2023/05/13 10:03:13;;;;;;;7.93;7.20;;;22.10;1.00;;;;;;5088658;28;20482;-69
2023/05/13 10:05:40;;;;;;;7.50;6.80;;;22.10;1.00;;;;;;5098098;28;20452;-71
2023/05/13 10:08:11;;;;;;;6.97;6.33;;;22.40;1.00;;;;;;5110049;28;20745;-69
2023/05/13 10:10:38;;;;;;;5.97;5.37;;;22.70;1.00;;;;;;5101106;28;20407;-69
2023/05/13 10:13:14;;;;;;;6.93;6.20;;;22.70;1.00;;;;;;5089582;28;20415;-69
2023/05/13 10:15:47;;;;;;;6.73;5.67;;;22.70;1.00;;;;;;5096605;28;20456;-70
2023/05/13 10:18:15;;;;;;;6.20;5.67;;;22.50;1.00;;;;;;5108900;28;20423;-72
2023/05/13 10:20:41;;;;;;;7.03;6.17;;;22.30;1.00;;;;;;5100190;28;20426;-68
2023/05/13 10:23:07;;;;;;;6.70;5.37;;;22.10;1.00;;;;;;5087860;28;20486;-70
2023/05/13 10:25:34;;;;;;;7.03;5.00;;;22.20;1.00;;;;;;5093441;28;20419;-71
2023/05/13 10:28:02;;;;;;;5.37;4.97;;;22.70;1.00;;;;;;5109764;28;20419;-72
2023/05/13 10:30:30;;;;;;;7.23;4.97;;;22.80;1.00;;;;;;5102285;28;20499;-68
2023/05/13 10:32:57;;;;;;;7.00;6.40;;;22.60;99.90;;;;;;5091836;28;20849;-68
2023/05/13 10:35:27;;;;;;;9.00;5.77;;;22.40;99.90;;;;;;5100012;28;20407;-70
2023/05/13 10:38:09;;;;;;;6.63;5.07;;;22.60;99.90;;;;;;5093918;28;20753;-71
2023/05/13 10:40:47;;;;;;;7.33;5.63;;;22.80;1.00;;;;;;5074672;28;20433;-70
2023/05/13 10:43:24;;;;;;;6.77;6.17;;;23.00;99.90;;;;;;5078532;28;20562;-71
2023/05/13 10:45:55;;;;;;;6.23;5.00;;;23.10;99.90;;;;;;5094527;28;20767;-71
2023/05/13 10:48:21;;;;;;;6.33;5.30;;;23.50;99.90;;;;;;5090792;28;20420;-71
2023/05/13 10:50:50;;;;;;;8.90;5.33;;;23.90;99.90;;;;;;5074645;28;20400;-72
2023/05/13 10:53:25;;;;;;;7.43;5.23;;;24.50;99.90;;;;;;5078657;28;20443;-71
2023/05/13 10:55:56;;;;;;;5.93;5.33;;;24.60;99.90;;;;;;5095617;28;20445;-72
2023/05/13 10:58:31;;;;;;;15.40;5.30;;;24.10;99.90;;;;;;5092660;28;20424;-72
2023/05/13 11:01:29;;;;;;;5.77;5.10;;;24.00;99.90;;;;;;5094934;28;20448;-71
2023/05/13 11:04:00;;;;;;;10.77;5.60;;;23.90;99.90;;;;;;5086776;28;20460;-71
2023/05/13 11:06:34;;;;;;;7.13;5.90;;;23.90;99.90;;;;;;5075173;28;20463;-71
2023/05/13 11:09:00;;;;;;;11.93;6.40;;;24.20;99.90;;;;;;5081581;28;20516;-71
2023/05/13 11:11:29;;;;;;;6.60;5.00;;;23.80;99.90;;;;;;5086861;28;20424;-72
2023/05/13 11:14:09;;;;;;;6.17;5.67;;;23.90;99.90;;;;;;5076724;28;20475;-72
2023/05/13 11:16:36;;;;;;;6.57;5.93;;;24.20;99.90;;;;;;5087114;28;20407;-72
2023/05/13 11:19:02;;;;;;;7.53;5.60;;;24.20;99.90;;;;;;5095002;28;20498;-71
2023/05/13 11:21:34;;;;;;;6.60;5.80;;;24.50;99.90;;;;;;5088918;28;20420;-71
2023/05/13 11:24:05;;;;;;;5.83;5.43;;;24.60;99.90;;;;;;5073140;28;20468;-70
2023/05/13 11:26:55;;;;;;;7.27;6.37;;;24.40;99.90;;;;;;5077641;28;20421;-71
2023/05/13 11:29:34;;;;;;;8.20;6.60;;;24.50;99.90;;;;;;5074866;28;20392;-71
2023/05/13 11:32:02;;;;;;;10.87;5.80;;;24.10;99.90;;;;;;5083005;28;20411;-70
2023/05/13 11:34:29;;;;;;;7.57;5.77;;;23.60;99.90;;;;;;5093610;28;20399;-73
2023/05/13 11:37:03;;;;;;;6.83;5.20;;;24.00;99.90;;;;;;5086319;28;20408;-72
2023/05/13 11:39:30;;;;;;;8.53;5.50;;;24.80;99.90;;;;;;5074619;28;20752;-71
2023/05/13 11:41:56;;;;;;;8.30;5.67;;;25.70;99.90;;;;;;5080180;28;21001;-72
2023/05/13 11:44:24;;;;;;;7.43;6.40;;;26.60;99.90;;;;;;5074161;28;20452;-71
2023/05/13 11:47:01;;;;;;;6.17;5.57;;;27.10;99.90;;;;;;5090048;28;20318;-72
2023/05/13 11:49:39;;;;;;;6.97;6.37;;;26.70;99.90;;;;;;5093663;28;20431;-71
2023/05/13 11:52:06;;;;;;;5.90;5.30;;;26.00;99.90;;;;;;5073375;28;20412;-71
2023/05/13 11:54:41;;;;;;;10.57;6.17;;;25.80;99.90;;;;;;5073958;28;20404;-72
2023/05/13 11:57:33;;;;;;;13.10;7.30;;;25.70;99.90;;;;;;5074155;28;20423;-70
2023/05/13 12:00:08;;;;;;;6.37;5.90;;;25.10;99.90;;;;;;5075133;28;21047;-71
2023/05/13 12:02:44;;;;;;;8.07;5.73;;;25.40;99.90;;;;;;5086974;28;20991;-71
2023/05/13 12:05:10;;;;;;;6.20;5.60;;;25.70;99.90;;;;;;5076415;28;20427;-70
2023/05/13 12:07:38;;;;;;;5.67;5.27;;;25.80;99.90;;;;;;5094353;28;20406;-71
2023/05/13 12:10:06;;;;;;;7.10;6.50;;;26.10;99.90;;;;;;5088466;28;20416;-77
2023/05/13 12:12:37;;;;;;;6.87;5.40;;;27.00;99.90;;;;;;5072811;28;20424;-71
2023/05/13 12:15:09;;;;;;;6.30;5.57;;;28.30;99.90;;;;;;5077620;28;21168;-72
2023/05/13 12:17:35;;;;;;;8.43;5.90;;;28.70;99.90;;;;;;5084956;28;20428;-70
2023/05/13 12:20:17;;;;;;;5.80;5.30;;;28.10;99.90;;;;;;5073738;28;20412;-71
2023/05/13 12:22:43;;;;;;;7.30;4.80;;;28.00;99.90;;;;;;5073466;28;20502;-71
2023/05/13 12:25:47;;;;;;;6.30;5.00;;;27.90;99.90;;;;;;5073587;28;20434;-72
2023/05/13 12:28:21;;;;;;;6.87;4.80;;;28.00;99.90;;;;;;5073543;28;20154;-70
2023/05/13 12:30:57;;;;;;;6.57;6.07;;;28.00;99.90;;;;;;5075450;28;20784;-65
2023/05/13 12:33:28;;;;;;;5.60;5.20;;;27.90;99.90;;;;;;5093018;28;20428;-66
2023/05/13 12:36:32;;;;;;;8.47;7.70;;;28.00;99.90;;;;;;5091043;28;20395;-67
2023/05/13 12:39:02;;;;;;;7.33;6.60;;;28.20;99.90;;;;;;5073175;28;20457;-68
2023/05/13 12:41:30;;;;;;;15.50;6.20;;;28.20;99.90;;;;;;5072139;28;20403;-66
2023/05/13 12:44:08;;;;;;;6.90;6.20;;;28.10;99.90;;;;;;5073154;28;20497;-70
2023/05/13 12:46:34;;;;;;;6.60;6.07;;;27.90;99.90;;;;;;5093141;28;20423;-68
2023/05/13 12:49:05;;;;;;;5.87;5.27;;;27.40;99.90;;;;;;5093042;28;20768;-66
2023/05/13 12:51:34;;;;;;;5.57;5.17;;;27.30;99.90;;;;;;5092430;28;20387;-66
2023/05/13 12:54:00;;;;;;;7.10;5.70;;;26.80;99.90;;;;;;5090079;28;20483;-69
2023/05/13 12:56:26;;;;;;;6.20;5.70;;;26.00;99.90;;;;;;5093329;28;20406;-64
2023/05/13 12:58:54;;;;;;;8.97;5.77;;;25.40;99.90;;;;;;5083973;28;20514;-70
2023/05/13 13:01:21;;;;;;;6.57;5.23;;;24.60;99.90;;;;;;5072076;28;20639;-69
2023/05/13 13:03:46;;;;;;;5.73;5.20;;;23.90;99.90;;;;;;5072889;28;20498;-68
2023/05/13 13:06:13;;;;;;;6.70;6.10;;;23.40;99.90;;;;;;5072766;28;20766;-65
2023/05/13 13:08:39;;;;;;;5.80;5.30;;;23.10;99.90;;;;;;5072718;28;20194;-64
2023/05/13 13:11:05;;;;;;;6.60;6.10;;;22.80;99.90;;;;;;5071977;28;20447;-70